createdAt,value
2023-02-04T00:01:58.273Z,57.14
2023-02-04T00:04:24.884Z,57.04
2023-02-04T00:06:51.523Z,56.76
2023-02-04T00:09:18.152Z,56.87
2023-02-04T00:11:45.653Z,56.36
2023-02-04T00:14:12.275Z,56.28
2023-02-04T00:16:38.904Z,56.25
2023-02-04T00:19:05.435Z,56.29
2023-02-04T00:21:31.943Z,55.45
2023-02-04T00:23:58.433Z,55.52
2023-02-04T00:26:25.059Z,55.49
2023-02-04T00:28:51.535Z,55.45
2023-02-04T00:31:18.134Z,55.06
2023-02-04T00:33:44.665Z,55.00
2023-02-04T00:36:11.152Z,55.06
2023-02-04T00:38:37.702Z,54.56
2023-02-04T00:41:04.367Z,54.90
2023-02-04T00:43:30.886Z,54.49
2023-02-04T00:45:57.457Z,54.47
2023-02-04T00:48:25.934Z,54.53
2023-02-04T00:50:54.166Z,54.70
2023-02-04T00:53:20.772Z,54.56
2023-02-04T00:55:47.238Z,54.41
2023-02-04T00:58:13.878Z,54.65
2023-02-04T01:00:40.518Z,54.78
2023-02-04T01:03:07.154Z,54.73
2023-02-04T01:05:33.689Z,54.85
2023-02-04T01:08:00.206Z,54.72
2023-02-04T01:10:26.924Z,55.11
2023-02-04T01:12:53.427Z,54.39
2023-02-04T01:15:19.925Z,55.00
2023-02-04T01:17:46.565Z,55.50
2023-02-04T01:20:13.129Z,55.48
2023-02-04T01:22:39.797Z,55.34
2023-02-04T01:25:07.025Z,55.62
2023-02-04T01:27:33.520Z,55.34
2023-02-04T01:30:00.123Z,55.54
2023-02-04T01:32:26.629Z,55.67
2023-02-04T01:34:53.108Z,55.92
2023-02-04T01:37:19.591Z,55.53
2023-02-04T01:39:46.101Z,55.86
2023-02-04T01:42:12.677Z,55.59
2023-02-04T01:44:39.669Z,55.82
2023-02-04T01:47:06.528Z,56.02
2023-02-04T01:49:33.062Z,54.62
2023-02-04T01:51:59.964Z,55.78
2023-02-04T01:54:26.877Z,55.91
2023-02-04T01:56:55.289Z,55.78
2023-02-04T01:59:22.323Z,55.89
2023-02-04T02:01:52.090Z,55.77
2023-02-04T02:04:26.985Z,55.80
2023-02-04T02:06:57.261Z,55.96
2023-02-04T02:09:23.950Z,55.62
2023-02-04T02:11:50.455Z,54.63
2023-02-04T02:14:17.006Z,55.98
2023-02-04T02:16:43.867Z,55.79
2023-02-04T02:19:12.340Z,54.70
2023-02-04T02:21:46.101Z,55.50
2023-02-04T02:24:30.321Z,55.13
2023-02-04T02:26:59.977Z,55.87
2023-02-04T02:29:27.504Z,55.76
2023-02-04T02:31:57.564Z,56.25
2023-02-04T02:34:25.712Z,56.00
2023-02-04T02:36:52.402Z,54.83
2023-02-04T02:39:19.559Z,54.99
2023-02-04T02:41:46.713Z,54.73
2023-02-04T02:44:15.049Z,54.48
2023-02-04T02:46:41.804Z,54.37
2023-02-04T02:49:13.511Z,54.23
2023-02-04T02:51:40.054Z,54.24
2023-02-04T02:54:06.551Z,53.93
2023-02-04T02:56:33.176Z,54.52
2023-02-04T02:59:13.569Z,54.09
2023-02-04T03:01:40.493Z,53.98
2023-02-04T03:04:07.163Z,54.27
2023-02-04T03:06:33.691Z,53.93
2023-02-04T03:09:00.471Z,53.91
2023-02-04T03:11:29.857Z,53.81
2023-02-04T03:13:58.086Z,54.11
2023-02-04T03:16:24.570Z,53.87
2023-02-04T03:18:51.121Z,53.93
2023-02-04T03:21:17.646Z,53.65
2023-02-04T03:23:44.261Z,54.09
2023-02-04T03:26:10.800Z,53.92
2023-02-04T03:28:42.277Z,54.47
2023-02-04T03:31:09.110Z,53.96
2023-02-04T03:33:36.084Z,54.23
2023-02-04T03:36:02.594Z,54.29
2023-02-04T03:38:29.184Z,54.35
2023-02-04T03:40:55.678Z,54.27
2023-02-04T03:43:22.191Z,54.30
2023-02-04T03:45:48.722Z,54.25
2023-02-04T03:48:15.236Z,54.31
2023-02-04T03:50:41.924Z,54.51
2023-02-04T03:53:09.157Z,54.36
2023-02-04T03:55:36.156Z,54.19
2023-02-04T03:58:03.812Z,54.62
2023-02-04T04:00:32.543Z,54.50
2023-02-04T04:02:59.823Z,54.54
2023-02-04T04:05:27.983Z,54.57
2023-02-04T04:07:54.519Z,54.56
2023-02-04T04:10:21.035Z,54.49
2023-02-04T04:12:47.524Z,54.30
2023-02-04T04:15:13.978Z,54.48
2023-02-04T04:17:40.476Z,54.50
2023-02-04T04:20:07.346Z,54.59
2023-02-04T04:22:34.039Z,54.22
2023-02-04T04:25:00.564Z,54.38
2023-02-04T04:27:27.112Z,54.05
2023-02-04T04:29:53.609Z,54.31
2023-02-04T04:32:20.411Z,54.29
2023-02-04T04:34:46.931Z,54.08
2023-02-04T04:37:13.810Z,54.41
2023-02-04T04:39:40.443Z,54.21
2023-02-04T04:42:06.995Z,54.00
2023-02-04T04:44:33.513Z,54.26
2023-02-04T04:47:00.188Z,54.32
2023-02-04T04:49:26.777Z,54.47
2023-02-04T04:51:53.303Z,54.57
2023-02-04T04:54:19.791Z,54.37
2023-02-04T04:56:46.364Z,54.55
2023-02-04T04:59:12.894Z,54.27
2023-02-04T05:01:39.603Z,53.90
2023-02-04T05:04:06.118Z,53.94
2023-02-04T05:06:32.620Z,54.21
2023-02-04T05:08:59.099Z,53.88
2023-02-04T05:11:25.625Z,54.15
2023-02-04T05:13:52.162Z,53.96
2023-02-04T05:16:18.782Z,53.76
2023-02-04T05:18:45.353Z,53.82
2023-02-04T05:21:11.917Z,53.64
2023-02-04T05:23:38.441Z,53.64
2023-02-04T05:26:05.187Z,53.15
2023-02-04T05:28:31.706Z,53.57
2023-02-04T05:30:58.297Z,53.24
2023-02-04T05:33:24.820Z,53.48
2023-02-04T05:35:51.363Z,53.24
2023-02-04T05:38:17.940Z,53.21
2023-02-04T05:40:44.440Z,53.37
2023-02-04T05:43:10.989Z,53.19
2023-02-04T05:45:37.527Z,53.41
2023-02-04T05:48:04.321Z,53.35
2023-02-04T05:50:31.355Z,53.43
2023-02-04T05:52:58.137Z,53.36
2023-02-04T05:55:24.666Z,52.91
2023-02-04T05:57:51.181Z,52.84
2023-02-04T06:00:17.809Z,53.18
2023-02-04T06:02:44.270Z,53.31
2023-02-04T06:05:10.753Z,53.28
2023-02-04T06:07:37.281Z,53.33
2023-02-04T06:10:03.966Z,53.54
2023-02-04T06:12:30.966Z,53.63
2023-02-04T06:14:57.492Z,53.71
2023-02-04T06:17:24.018Z,54.00
2023-02-04T06:19:50.531Z,54.28
2023-02-04T06:22:17.368Z,54.17
2023-02-04T06:24:43.760Z,53.79
2023-02-04T06:27:10.586Z,54.23
2023-02-04T06:29:37.057Z,54.11
2023-02-04T06:32:03.689Z,54.21
2023-02-04T06:34:30.225Z,54.23
2023-02-04T06:36:56.722Z,54.37
2023-02-04T06:39:23.295Z,54.08
2023-02-04T06:41:49.760Z,53.97
2023-02-04T06:44:16.273Z,53.98
2023-02-04T06:46:42.790Z,53.87
2023-02-04T06:49:09.324Z,54.05
2023-02-04T06:51:35.836Z,54.19
2023-02-04T06:54:02.325Z,54.20
2023-02-04T06:56:29.924Z,54.54
2023-02-04T06:58:56.549Z,54.47
2023-02-04T07:01:23.089Z,54.79
2023-02-04T07:03:49.662Z,54.93
2023-02-04T07:06:16.456Z,55.15
2023-02-04T07:08:42.924Z,54.21
2023-02-04T07:11:09.439Z,55.37
2023-02-04T07:13:35.892Z,55.47
2023-02-04T07:16:02.694Z,55.73
2023-02-04T07:18:29.123Z,54.51
2023-02-04T07:20:55.627Z,56.03
2023-02-04T07:23:22.135Z,56.12
2023-02-04T07:25:49.209Z,56.61
2023-02-04T07:28:15.689Z,55.16
2023-02-04T07:30:42.329Z,56.22
2023-02-04T07:33:08.863Z,55.11
2023-02-04T07:35:35.371Z,56.56
2023-02-04T07:38:01.883Z,56.66
2023-02-04T07:40:28.494Z,56.76
2023-02-04T07:42:55.078Z,56.70
2023-02-04T07:45:21.577Z,56.73
2023-02-04T07:47:48.132Z,56.71
2023-02-04T07:50:14.877Z,57.42
2023-02-04T07:52:41.417Z,57.71
2023-02-04T07:55:08.470Z,57.57
2023-02-04T07:57:35.119Z,57.83
2023-02-04T08:00:01.729Z,57.81
2023-02-04T08:02:28.420Z,57.88
2023-02-04T08:04:54.951Z,57.90
2023-02-04T08:07:21.487Z,57.51
2023-02-04T08:09:48.147Z,57.56
2023-02-04T08:12:14.715Z,57.58
2023-02-04T08:14:41.429Z,57.46
2023-02-04T08:17:07.945Z,57.79
2023-02-04T08:19:34.478Z,57.90
2023-02-04T08:22:00.948Z,57.65
2023-02-04T08:24:27.483Z,57.14
2023-02-04T08:26:53.937Z,57.00
2023-02-04T08:29:20.614Z,57.50
2023-02-04T08:31:47.897Z,57.38
2023-02-04T08:34:14.870Z,57.69
2023-02-04T08:36:41.441Z,57.29
2023-02-04T08:39:07.944Z,58.02
2023-02-04T08:41:34.432Z,58.53
2023-02-04T08:44:01.052Z,57.99
2023-02-04T08:46:27.717Z,57.24
2023-02-04T08:48:54.226Z,58.34
2023-02-04T08:51:20.801Z,57.07
2023-02-04T08:53:47.311Z,56.84
2023-02-04T08:56:16.683Z,56.35
2023-02-04T08:58:44.332Z,56.12
2023-02-04T09:01:11.436Z,55.99
2023-02-04T09:03:38.755Z,56.25
2023-02-04T09:06:06.583Z,56.14
2023-02-04T09:08:33.495Z,55.83
2023-02-04T09:11:00.175Z,54.42
2023-02-04T09:13:26.674Z,54.35
2023-02-04T09:15:54.296Z,54.19
2023-02-04T09:18:22.524Z,54.05
2023-02-04T09:20:49.790Z,53.44
2023-02-04T09:23:16.951Z,53.27
2023-02-04T09:25:45.208Z,61.39
2023-02-04T09:28:13.167Z,55.65
2023-02-04T09:30:41.203Z,55.26
2023-02-04T09:33:09.208Z,58.01
2023-02-04T09:35:35.914Z,53.96
2023-02-04T09:38:02.357Z,55.06
2023-02-04T09:40:38.070Z,52.42
2023-02-04T09:43:06.816Z,54.31
2023-02-04T09:45:35.503Z,53.36
2023-02-04T09:48:06.853Z,51.14
2023-02-04T09:50:34.703Z,50.98
2023-02-04T09:53:05.465Z,53.60
2023-02-04T09:55:39.795Z,51.29
2023-02-04T09:58:13.864Z,49.88
2023-02-04T10:00:40.410Z,50.80
2023-02-04T10:03:18.295Z,48.95
2023-02-04T10:05:46.868Z,47.78
2023-02-04T10:08:18.898Z,47.87
2023-02-04T10:10:48.150Z,47.49
2023-02-04T10:13:19.625Z,47.90
2023-02-04T10:15:48.618Z,47.92
2023-02-04T10:18:25.293Z,48.27
2023-02-04T10:20:57.599Z,47.86
2023-02-04T10:23:24.374Z,47.13
2023-02-04T10:25:50.865Z,46.80
2023-02-04T10:28:18.564Z,46.13
2023-02-04T10:30:47.265Z,45.88
2023-02-04T10:33:16.138Z,45.87
2023-02-04T10:35:51.345Z,46.45
2023-02-04T10:38:18.365Z,45.66
2023-02-04T10:40:46.197Z,44.92
2023-02-04T10:43:17.446Z,45.51
2023-02-04T10:45:54.801Z,45.85
2023-02-04T10:48:21.742Z,44.05
2023-02-04T10:50:49.344Z,43.34
2023-02-04T10:53:37.483Z,43.22
2023-02-04T10:56:05.006Z,42.59
2023-02-04T10:58:32.487Z,42.70
2023-02-04T11:00:59.120Z,43.16
2023-02-04T11:03:27.016Z,47.08
2023-02-04T11:05:57.535Z,42.19
2023-02-04T11:08:32.150Z,42.38
2023-02-04T11:11:05.700Z,43.31
2023-02-04T11:13:44.310Z,44.07
2023-02-04T11:16:31.545Z,44.84
2023-02-04T11:19:07.131Z,44.08
2023-02-04T11:21:33.641Z,42.86
2023-02-04T11:24:12.497Z,44.54
2023-02-04T11:26:41.351Z,41.97
2023-02-04T11:29:16.227Z,43.04
2023-02-04T11:31:58.159Z,43.99
2023-02-04T11:34:28.186Z,42.27
2023-02-04T11:36:56.991Z,42.15
2023-02-04T11:39:29.256Z,42.87
2023-02-04T11:41:55.843Z,42.94
2023-02-04T11:44:23.173Z,43.05
2023-02-04T11:46:57.012Z,43.11
2023-02-04T11:49:25.777Z,40.99
2023-02-04T11:52:04.208Z,43.16
2023-02-04T11:54:30.707Z,40.77
2023-02-04T11:56:59.983Z,41.70
2023-02-04T11:59:26.676Z,40.53
2023-02-04T12:02:03.448Z,45.39
2023-02-04T12:04:29.942Z,40.22
2023-02-04T12:07:03.352Z,40.61
2023-02-04T12:09:31.641Z,39.87
2023-02-04T12:12:03.277Z,39.42
2023-02-04T12:14:33.618Z,40.16
2023-02-04T12:17:00.311Z,39.72
2023-02-04T12:19:27.772Z,45.16
2023-02-04T12:21:55.225Z,39.28
2023-02-04T12:24:21.838Z,38.48
2023-02-04T12:26:48.236Z,44.63
2023-02-04T12:29:14.746Z,37.75
2023-02-04T12:31:41.370Z,38.58
2023-02-04T12:34:07.864Z,44.47
2023-02-04T12:36:34.395Z,37.90
2023-02-04T12:39:00.877Z,38.14
2023-02-04T12:41:28.432Z,38.65
2023-02-04T12:43:55.760Z,37.01
2023-02-04T12:46:22.588Z,36.12
2023-02-04T12:48:49.135Z,36.76
2023-02-04T12:51:15.827Z,36.84
2023-02-04T12:53:42.308Z,36.68
2023-02-04T12:56:08.884Z,36.33
2023-02-04T12:58:35.363Z,36.24
2023-02-04T13:01:04.191Z,36.59
2023-02-04T13:03:31.261Z,37.47
2023-02-04T13:05:57.860Z,35.45
2023-02-04T13:08:24.686Z,42.39
2023-02-04T13:10:52.321Z,36.29
2023-02-04T13:13:19.921Z,36.97
2023-02-04T13:15:47.091Z,35.23
2023-02-04T13:18:13.615Z,35.48
2023-02-04T13:20:40.101Z,35.35
2023-02-04T13:23:06.885Z,35.81
2023-02-04T13:25:33.898Z,35.64
2023-02-04T13:28:00.814Z,34.37
2023-02-04T13:30:27.372Z,34.68
2023-02-04T13:32:53.856Z,40.30
2023-02-04T13:35:20.392Z,35.19
2023-02-04T13:37:46.909Z,35.01
2023-02-04T13:40:13.881Z,34.72
2023-02-04T13:42:40.371Z,34.78
2023-02-04T13:45:10.576Z,34.98
2023-02-04T13:47:37.031Z,35.79
2023-02-04T13:50:03.734Z,35.62
2023-02-04T13:52:30.147Z,40.14
2023-02-04T13:54:56.694Z,36.73
2023-02-04T13:57:23.230Z,37.09
2023-02-04T13:59:49.701Z,36.56
2023-02-04T14:02:16.218Z,36.34
2023-02-04T14:04:43.989Z,37.15
2023-02-04T14:07:10.605Z,36.98
2023-02-04T14:09:37.065Z,40.75
2023-02-04T14:12:03.861Z,37.33
2023-02-04T14:14:30.271Z,40.83
2023-02-04T14:16:57.022Z,38.44
2023-02-04T14:19:27.639Z,38.59
2023-02-04T14:21:54.202Z,38.26
2023-02-04T14:24:21.563Z,38.74
2023-02-04T14:26:48.117Z,38.32
2023-02-04T14:29:14.709Z,37.51
2023-02-04T14:31:41.319Z,37.44
2023-02-04T14:34:07.867Z,38.20
2023-02-04T14:36:34.381Z,36.94
2023-02-04T14:39:00.939Z,36.91
2023-02-04T14:41:30.110Z,36.94
2023-02-04T14:43:57.125Z,37.63
2023-02-04T14:46:24.056Z,37.67
2023-02-04T14:48:52.157Z,37.42
2023-02-04T14:51:19.720Z,37.27
2023-02-04T14:53:48.769Z,36.95
2023-02-04T14:56:16.280Z,37.42
2023-02-04T14:58:42.925Z,37.19
2023-02-04T15:01:09.706Z,38.21
2023-02-04T15:03:36.411Z,38.14
2023-02-04T15:06:02.832Z,40.68
2023-02-04T15:08:29.381Z,39.63
2023-02-04T15:10:55.877Z,39.38
2023-02-04T15:13:22.469Z,39.80
2023-02-04T15:15:49.006Z,38.98
2023-02-04T15:18:15.890Z,39.34
2023-02-04T15:20:42.377Z,39.30
2023-02-04T15:23:12.979Z,39.56
2023-02-04T15:25:40.288Z,39.71
2023-02-04T15:28:07.330Z,39.64
2023-02-04T15:30:34.427Z,40.33
2023-02-04T15:33:01.251Z,40.37
2023-02-04T15:35:27.758Z,40.22
2023-02-04T15:37:54.262Z,40.37
2023-02-04T15:40:22.401Z,40.47
2023-02-04T15:42:48.894Z,40.33
2023-02-04T15:45:15.547Z,40.85
2023-02-04T15:47:42.018Z,42.04
2023-02-04T15:50:11.092Z,40.48
2023-02-04T15:52:37.776Z,40.83
2023-02-04T15:55:04.394Z,42.01
2023-02-04T15:57:30.887Z,40.73
2023-02-04T15:59:58.140Z,41.40
2023-02-04T16:02:24.689Z,41.38
2023-02-04T16:04:51.672Z,42.04
2023-02-04T16:07:18.205Z,41.71
2023-02-04T16:09:44.831Z,42.05
2023-02-04T16:12:11.401Z,42.08
2023-02-04T16:14:37.941Z,42.29
2023-02-04T16:17:06.971Z,42.30
2023-02-04T16:19:33.599Z,42.61
2023-02-04T16:22:06.745Z,42.79
2023-02-04T16:24:33.788Z,43.45
2023-02-04T16:27:00.282Z,43.21
2023-02-04T16:29:27.036Z,43.33
2023-02-04T16:31:54.125Z,43.73
2023-02-04T16:34:20.689Z,43.04
2023-02-04T16:36:47.245Z,43.56
2023-02-04T16:39:13.992Z,43.52
2023-02-04T16:41:40.480Z,43.61
2023-02-04T16:44:06.981Z,43.53
2023-02-04T16:46:34.018Z,43.66
2023-02-04T16:49:01.355Z,43.85
2023-02-04T16:51:28.705Z,44.20
2023-02-04T16:53:55.181Z,44.29
2023-02-04T16:56:21.768Z,44.08
2023-02-04T16:58:48.488Z,44.19
2023-02-04T17:01:17.378Z,44.01
2023-02-04T17:03:44.641Z,44.33
2023-02-04T17:06:11.222Z,44.28
2023-02-04T17:08:37.706Z,44.61
2023-02-04T17:11:23.106Z,44.92
2023-02-04T17:13:49.595Z,44.83
2023-02-04T17:16:18.563Z,44.61
2023-02-04T17:18:45.107Z,44.77
2023-02-04T17:21:11.602Z,44.93
2023-02-04T17:23:38.170Z,45.21
2023-02-04T17:26:04.851Z,45.58
2023-02-04T17:28:31.437Z,45.65
2023-02-04T17:30:58.257Z,45.79
2023-02-04T17:33:24.802Z,45.92
2023-02-04T17:35:51.432Z,45.93
2023-02-04T17:38:18.013Z,45.91
2023-02-04T17:40:44.584Z,46.08
2023-02-04T17:43:11.160Z,46.02
2023-02-04T17:45:38.123Z,46.32
2023-02-04T17:48:05.593Z,46.38
2023-02-04T17:53:23.611Z,46.28
2023-02-04T17:55:50.078Z,46.44
2023-02-04T17:58:22.039Z,46.45
2023-02-04T18:00:49.429Z,46.56
2023-02-04T18:03:20.397Z,46.59
2023-02-04T18:05:52.197Z,47.01
2023-02-04T18:08:31.823Z,46.85
2023-02-04T18:10:58.588Z,46.97
2023-02-04T18:13:31.596Z,47.07
2023-02-04T18:16:10.298Z,47.13
2023-02-04T18:18:39.870Z,47.29
2023-02-04T18:21:31.300Z,46.94
2023-02-04T18:24:14.426Z,47.19
2023-02-04T18:26:51.714Z,47.10
2023-02-04T18:29:31.221Z,47.23
2023-02-04T18:32:10.788Z,47.68
2023-02-04T18:34:43.992Z,47.66
2023-02-04T18:37:35.818Z,47.72
2023-02-04T18:40:08.459Z,47.66
2023-02-04T18:42:38.420Z,48.13
2023-02-04T18:45:27.588Z,47.82
2023-02-04T18:48:13.965Z,48.15
2023-02-04T18:50:40.710Z,48.43
2023-02-04T18:53:13.638Z,47.04
2023-02-04T18:55:41.980Z,48.13
2023-02-04T18:58:17.911Z,47.84
2023-02-04T19:00:49.670Z,48.41
2023-02-04T19:03:26.754Z,48.46
2023-02-04T19:05:55.240Z,48.62
2023-02-04T19:08:41.930Z,48.57
2023-02-04T19:11:27.142Z,48.43
2023-02-04T19:13:57.021Z,49.08
2023-02-04T19:16:26.621Z,49.10
2023-02-04T19:18:54.874Z,48.85
2023-02-04T19:21:27.391Z,49.33
2023-02-04T19:24:14.408Z,48.89
2023-02-04T19:26:47.274Z,48.99
2023-02-04T19:29:37.031Z,48.57
2023-02-04T19:32:28.062Z,49.02
2023-02-04T19:34:58.860Z,49.19
2023-02-04T19:37:41.507Z,48.94
2023-02-04T19:40:25.915Z,48.85
2023-02-04T19:43:16.391Z,49.11
2023-02-04T19:45:43.018Z,49.50
2023-02-04T19:48:22.753Z,49.13
2023-02-04T19:50:53.070Z,49.39
2023-02-04T19:53:22.528Z,49.56
2023-02-04T19:55:52.996Z,49.46
2023-02-04T19:58:39.407Z,49.73
2023-02-04T20:01:11.380Z,49.82
2023-02-04T20:03:44.365Z,49.93
2023-02-04T20:06:31.809Z,49.83
2023-02-04T20:09:00.597Z,50.12
2023-02-04T20:11:30.120Z,49.93
2023-02-04T20:14:10.380Z,50.26
2023-02-04T20:16:42.996Z,49.99
2023-02-04T20:19:31.214Z,49.83
2023-02-04T20:22:23.481Z,49.72
2023-02-04T20:24:59.161Z,50.19
2023-02-04T20:27:41.135Z,49.90
2023-02-04T20:30:08.074Z,50.31
2023-02-04T20:32:41.536Z,50.47
2023-02-04T20:35:13.963Z,50.51
2023-02-04T20:37:42.032Z,50.65
2023-02-04T20:40:19.430Z,50.72
2023-02-04T20:42:47.223Z,49.32
2023-02-04T20:45:36.226Z,49.88
2023-02-04T20:48:28.254Z,50.25
2023-02-04T20:50:58.547Z,51.09
2023-02-04T20:53:39.382Z,51.22
2023-02-04T20:56:28.628Z,51.06
2023-02-04T20:59:19.444Z,51.10
2023-02-04T21:01:50.276Z,51.81
2023-02-04T21:04:30.405Z,51.83
2023-02-04T21:07:03.469Z,52.21
2023-02-04T21:09:32.791Z,52.06
2023-02-04T21:12:00.774Z,52.23
2023-02-04T21:14:29.063Z,52.37
2023-02-04T21:16:56.347Z,52.14
2023-02-04T21:19:24.695Z,52.30
2023-02-04T21:21:51.701Z,52.18
2023-02-04T21:24:18.451Z,52.46
2023-02-04T21:26:45.219Z,52.17
2023-02-04T21:29:11.836Z,52.46
2023-02-04T21:31:38.658Z,52.51
2023-02-04T21:34:05.913Z,52.41
2023-02-04T21:36:32.500Z,52.32
